Flight Track Log - Related Links

Times and Time Zones

All times are in EDT time to prevent confusion due to time zone crossing. See the EJA922 flight status page for this flight to view local times or setup timezone preferences in your user account.

Time Position Orientation Groundspeed Altitude Reporting Facility
EDT Latitude Longitude Course Direction KTS MPH feet Rate Location/Type
Thu 17:12:49 44.9431 -93.2517 77° East 221 254 4,800  Level Minneapolis Center
Thu 17:13:51 44.9881 -93.1750 50° Northeast 275 316 9,100 3,484 Climbing Minneapolis Center
Thu 17:14:53 45.0289 -93.0614 63° Northeast 327 376 12,000 2,758 Climbing Minneapolis Center
Thu 17:15:55 45.0878 -92.8964 63° Northeast 389 448 14,800 2,516 Climbing Minneapolis Center
Thu 17:16:57 45.1381 -92.7561 63° Northeast 398 458 17,200 2,016 Climbing Minneapolis Center
Thu 17:18:00 45.0507 -92.1854 77° East  Level Estimated
Thu 17:18:00 45.1886 -92.6125 63° Northeast 404 465 19,000  Level Minneapolis Center
Thu 17:19:02 45.2406 -92.4642 64° Northeast 418 481 21,000 1,776 Climbing Minneapolis Center
Thu 17:20:05 45.2939 -92.3136 63° Northeast 427 491 22,700 1,536 Climbing Minneapolis Center
Thu 17:21:07 45.3233 -92.1369 77° East 457 526 24,200 1,597 Climbing Minneapolis Center
Thu 17:22:09 45.3167 -91.9108 92° East 476 548 26,000 1,597 Climbing Minneapolis Center
Thu 17:23:11 45.3017 -91.7156 96° East 491 565 27,500 1,500 Climbing Minneapolis Center
Thu 17:24:13 45.2867 -91.5181 96° East 499 574 29,100 1,452 Climbing Minneapolis Center
Thu 17:25:15 45.2703 -91.3161 97° East 506 582 30,500 1,403 Climbing Minneapolis Center
Thu 17:26:17 45.2681 -91.1089 91° East 519 597 32,000 1,452 Climbing Minneapolis Center
Thu 17:27:19 45.3053 -90.8681 78° East 520 598 33,500 1,210 Climbing Minneapolis Center
Thu 17:28:21 45.3364 -90.6578 78° East 533 613 34,500 960 Climbing Minneapolis Center
Thu 17:29:24 45.3678 -90.4397 78° East 550 633 35,500 960 Climbing Minneapolis Center
Thu 17:30:26 45.3986 -90.2206 79° East 563 648 36,500 1,113 Climbing Minneapolis Center
Thu 17:31:28 45.4286 -89.9989 79° East 571 657 37,800 1,355 Climbing Minneapolis Center
Thu 17:32:30 45.4589 -89.7817 79° East 567 652 39,300 1,597 Climbing Minneapolis Center
Thu 17:33:32 45.4919 -89.5250 80° East 556 640 41,100 1,403 Climbing Minneapolis Center
Thu 17:34:34 45.5203 -89.3125 79° East 552 635 42,200 1,016 Climbing Minneapolis Center
Thu 17:35:36 45.5472 -89.1003 80° East 551 634 43,200 968 Climbing Minneapolis Center
Thu 17:36:38 45.5747 -88.8911 79° East 545 627 44,200 871 Climbing Minneapolis Center
Thu 17:37:40 45.6061 -88.6425 80° East 536 617 45,000 387 Climbing Minneapolis Center
Thu 17:38:42 45.6314 -88.4342 80° East 535 616 45,000  Level Minneapolis Center
Thu 17:39:45 45.6581 -88.2217 80° East 544 626 45,000  Level Minneapolis Center
Thu 17:40:47 45.6814 -88.0244 80° East 549 632 45,000  Level Minneapolis Center
Thu 17:41:49 45.7114 -87.7647 81° East 551 634 45,000  Level Minneapolis Center
Thu 17:42:51 45.7367 -87.5467 80° East 555 639 45,000  Level Minneapolis Center
Thu 17:43:53 45.7619 -87.3292 80° East 556 640 45,000  Level Minneapolis Center
Thu 17:44:55 45.7853 -87.1108 81° East 556 640 45,000  Level Minneapolis Center
Thu 17:45:57 45.8050 -86.9372 81° East 552 635 45,000  Level Minneapolis Center
Thu 17:46:59 45.8331 -86.6756 81° East 551 634 45,000  Level Minneapolis Center
Thu 17:48:02 45.8600 -86.4192 81° East 544 626 45,000  Level Minneapolis Center
Thu 17:49:04 45.8819 -86.2064 81° East 541 623 45,000  Level Minneapolis Center
Thu 17:50:06 45.9033 -85.9947 82° East 536 617 45,000  Level Minneapolis Center
Thu 17:51:08 45.9242 -85.7819 82° East 538 619 45,000  Level Minneapolis Center
Thu 17:52:10 45.9447 -85.5689 82° East 537 618 45,000  Level Minneapolis Center
Thu 17:53:12 45.9650 -85.3575 82° East 535 616 45,000  Level Minneapolis Center
Thu 17:54:14 45.9875 -85.1039 83° East 533 613 45,000  Level Minneapolis Center
Thu 17:55:17 46.0075 -84.8967 82° East 529 609 45,000  Level Minneapolis Center
Thu 17:56:18 46.0264 -84.6889 82° East 525 604 45,000  Level Minneapolis Center
Thu 17:56:55 46.0333 -84.5500 86° East 530 610 45,000  Level Toronto Center
Thu 17:57:55 46.0333 -84.3333 90° East 530 610 45,000  Level Toronto Center
Thu 17:58:55 46.0667 -84.1333 76° East 530 610 45,000  Level Toronto Center
Thu 17:59:55 46.0667 -83.9167 90° East 530 610 45,000  Level Toronto Center
Thu 18:00:55 46.1000 -83.7167 76° East 520 598 45,000  Level Toronto Center
Thu 18:01:55 46.1167 -83.5000 84° East 530 610 45,000  Level Toronto Center
Thu 18:02:55 46.1167 -83.2833 90° East 530 610 45,000  Level Toronto Center
Thu 18:03:55 46.1500 -83.0667 77° East 530 610 45,000  Level Toronto Center
Thu 18:04:55 46.1500 -82.8500 90° East 530 610 45,000  Level Toronto Center
Thu 18:05:55 46.1833 -82.6500 76° East 530 610 45,000  Level Toronto Center
Thu 18:06:55 46.1833 -82.4500 90° East 530 610 45,000  Level Toronto Center
Thu 18:07:55 46.2000 -82.2167 84° East 540 621 45,000  Level Toronto Center
Thu 18:08:55 46.2000 -82.0167 90° East 540 621 45,000  Level Toronto Center
Thu 18:09:55 46.2333 -81.8000 77° East 540 621 45,000  Level Toronto Center
Thu 18:10:55 46.2500 -81.5833 84° East 540 621 45,000  Level Toronto Center
Thu 18:11:55 46.2500 -81.3500 90° East 540 621 45,000  Level Toronto Center
Thu 18:12:55 46.2667 -81.1500 83° East 550 633 45,000  Level Toronto Center
Thu 18:13:55 46.2667 -80.9167 90° East 550 633 45,000  Level Toronto Center
Thu 18:14:55 46.3000 -80.7000 77° East 550 633 45,000  Level Toronto Center
Thu 18:15:55 46.3000 -80.5000 90° East 550 633 45,000  Level Toronto Center
Thu 18:16:55 46.3167 -80.2667 84° East 550 633 45,000  Level Toronto Center
Thu 18:17:55 46.3333 -80.0500 84° East 550 633 45,000  Level Toronto Center
Thu 18:18:55 46.3333 -79.8167 90° East 550 633 45,000  Level Toronto Center
Thu 18:19:55 46.3500 -79.5833 84° East 550 633 45,000 -450 Level Toronto Center
Thu 18:20:55 46.3500 -79.3833 90° East 560 644 44,100 -950 Descending Toronto Center
Thu 18:21:55 46.3500 -79.1500 90° East 570 656 43,100 -1,000 Descending Toronto Center
Thu 18:22:55 46.3333 -78.9000 95° East 570 656 42,100 -1,000 Descending Toronto Center
Thu 18:23:55 46.3333 -78.6833 90° East 570 656 41,100 -1,000 Descending Toronto Center
Thu 18:24:55 46.3333 -78.4500 90° East 560 644 40,100 -1,000 Descending Toronto Center
Thu 18:25:55 46.3167 -78.2333 96° East 570 656 39,100 -1,250 Descending Toronto Center
Thu 18:26:55 46.3333 -77.9833 84° East 580 667 37,600 -1,500 Descending Toronto Center
Thu 18:27:31 46.3333 -77.8833 90° East 590 679 36,700 -1,500 Descending Montreal Center
Thu 18:28:31 46.3500 -77.6167 85° East 620 713 35,200 -1,500 Descending Montreal Center
Thu 18:29:31 46.3500 -77.3833 90° East 630 725 33,700 -1,450 Descending Montreal Center
Thu 18:30:31 46.3500 -77.1167 90° East 630 725 32,300 -1,150 Descending Montreal Center
Thu 18:31:31 46.3667 -76.8667 84° East 630 725 31,400 -1,200 Descending Montreal Center
Thu 18:32:31 46.3667 -76.6000 90° East 620 713 29,900 -1,450 Descending Montreal Center
Thu 18:33:31 46.3833 -76.3833 84° East 610 702 28,500 -2,050 Descending Montreal Center
Thu 18:34:31 46.3833 -76.1333 90° East 570 656 25,800 -2,900 Descending Montreal Center
Thu 18:35:31 46.3833 -75.9167 90° East 520 598 22,700 -3,150 Descending Montreal Center
Thu 18:36:31 46.3833 -75.7000 90° East 520 598 19,500 -3,100 Descending Montreal Center
Thu 18:37:31 46.4000 -75.5333 82° East 450 518 16,500 -2,950 Descending Montreal Center
Thu 18:38:31 46.4000 -75.3667 90° East 400 460 13,600 -3,050 Descending Montreal Center
Thu 18:39:31 46.4000 -75.2167 90° East 340 391 10,400 -2,800 Descending Montreal Center
Thu 18:40:31 46.4000 -75.1000 90° East 300 345 8,000 -2,000 Descending Montreal Center
Thu 18:41:31 46.4000 -74.9667 90° East 260 299 6,400 -2,150 Descending Montreal Center
Thu 18:42:31 46.3667 -74.8667 116° Southeast 270 311 3,700 -2,700 Descending Montreal Center
Thu 18:44:00 46.4000 -74.7667 90° East  Level FlightAware Approximate
Thu 18:51:00 46.4094 -74.7797 90° East  Level Estimated
Thu 18:52:00 46.4094 -74.7797 90° East  Level Estimated

Login

Don't have an account? Register now (free) for customized features, flight alerts, and more!